sensor_id;sensor_type;location;lat;lon;timestamp;temperature;humidity
57108;DHT22;42987;52.916;6.542;2022-11-15T00:00:55;7.50;99.90
57108;DHT22;42987;52.916;6.542;2022-11-15T00:03:24;7.50;99.90
57108;DHT22;42987;52.916;6.542;2022-11-15T00:05:50;7.40;99.90
57108;DHT22;42987;52.916;6.542;2022-11-15T00:08:16;7.40;99.90
57108;DHT22;42987;52.916;6.542;2022-11-15T00:10:42;7.40;99.90
57108;DHT22;42987;52.916;6.542;2022-11-15T00:13:12;7.40;99.90
57108;DHT22;42987;52.916;6.542;2022-11-15T00:15:39;7.50;99.90
57108;DHT22;42987;52.916;6.542;2022-11-15T00:18:06;7.50;99.90
57108;DHT22;42987;52.916;6.542;2022-11-15T00:20:36;7.50;99.90
57108;DHT22;42987;52.916;6.542;2022-11-15T00:23:03;7.50;99.90
57108;DHT22;42987;52.916;6.542;2022-11-15T00:25:30;7.60;99.90
57108;DHT22;42987;52.916;6.542;2022-11-15T00:27:57;7.60;99.90
57108;DHT22;42987;52.916;6.542;2022-11-15T00:30:23;7.70;99.90
57108;DHT22;42987;52.916;6.542;2022-11-15T00:32:52;7.70;99.90
57108;DHT22;42987;52.916;6.542;2022-11-15T00:35:18;7.70;99.90
57108;DHT22;42987;52.916;6.542;2022-11-15T00:37:44;7.70;99.90
57108;DHT22;42987;52.916;6.542;2022-11-15T00:40:11;7.70;99.90
57108;DHT22;42987;52.916;6.542;2022-11-15T00:42:43;7.70;99.90
57108;DHT22;42987;52.916;6.542;2022-11-15T00:45:09;7.80;99.90
57108;DHT22;42987;52.916;6.542;2022-11-15T00:47:35;7.70;99.90
57108;DHT22;42987;52.916;6.542;2022-11-15T00:50:01;7.70;99.90
57108;DHT22;42987;52.916;6.542;2022-11-15T00:52:27;7.70;99.90
57108;DHT22;42987;52.916;6.542;2022-11-15T00:54:56;7.70;99.90
57108;DHT22;42987;52.916;6.542;2022-11-15T00:57:21;7.70;99.90
57108;DHT22;42987;52.916;6.542;2022-11-15T00:59:47;7.70;99.90
57108;DHT22;42987;52.916;6.542;2022-11-15T01:02:13;7.70;99.90
57108;DHT22;42987;52.916;6.542;2022-11-15T01:04:39;7.70;99.90
57108;DHT22;42987;52.916;6.542;2022-11-15T01:07:05;7.70;99.90
57108;DHT22;42987;52.916;6.542;2022-11-15T01:09:30;7.70;99.90
57108;DHT22;42987;52.916;6.542;2022-11-15T01:11:56;7.70;99.90
57108;DHT22;42987;52.916;6.542;2022-11-15T01:14:22;7.70;99.90
57108;DHT22;42987;52.916;6.542;2022-11-15T01:16:48;7.70;99.90
57108;DHT22;42987;52.916;6.542;2022-11-15T01:19:14;7.70;99.90
57108;DHT22;42987;52.916;6.542;2022-11-15T01:21:39;7.70;99.90
57108;DHT22;42987;52.916;6.542;2022-11-15T01:24:05;7.70;99.90
57108;DHT22;42987;52.916;6.542;2022-11-15T01:26:33;7.70;99.90
57108;DHT22;42987;52.916;6.542;2022-11-15T01:29:02;7.70;99.90
57108;DHT22;42987;52.916;6.542;2022-11-15T01:31:31;7.70;99.90
57108;DHT22;42987;52.916;6.542;2022-11-15T01:33:56;7.70;99.90
57108;DHT22;42987;52.916;6.542;2022-11-15T01:36:22;7.70;99.90
57108;DHT22;42987;52.916;6.542;2022-11-15T01:38:56;7.70;99.90
57108;DHT22;42987;52.916;6.542;2022-11-15T01:41:25;7.70;99.90
57108;DHT22;42987;52.916;6.542;2022-11-15T01:43:53;7.70;99.90
57108;DHT22;42987;52.916;6.542;2022-11-15T01:46:35;7.70;99.90
57108;DHT22;42987;52.916;6.542;2022-11-15T01:49:05;7.70;99.90
57108;DHT22;42987;52.916;6.542;2022-11-15T01:51:36;7.70;99.90
57108;DHT22;42987;52.916;6.542;2022-11-15T01:54:07;7.60;99.90
57108;DHT22;42987;52.916;6.542;2022-11-15T01:56:38;7.70;99.90
57108;DHT22;42987;52.916;6.542;2022-11-15T01:59:08;7.70;99.90
57108;DHT22;42987;52.916;6.542;2022-11-15T02:01:34;7.70;99.90
57108;DHT22;42987;52.916;6.542;2022-11-15T02:06:42;7.70;99.90
57108;DHT22;42987;52.916;6.542;2022-11-15T02:09:08;7.70;99.90
57108;DHT22;42987;52.916;6.542;2022-11-15T02:11:34;7.70;99.90
57108;DHT22;42987;52.916;6.542;2022-11-15T02:14:01;7.70;99.90
57108;DHT22;42987;52.916;6.542;2022-11-15T02:22:22;7.70;99.90
57108;DHT22;42987;52.916;6.542;2022-11-15T02:25:20;7.70;99.90
57108;DHT22;42987;52.916;6.542;2022-11-15T02:30:41;7.80;99.90
57108;DHT22;42987;52.916;6.542;2022-11-15T02:33:28;7.80;99.90
57108;DHT22;42987;52.916;6.542;2022-11-15T02:36:14;7.80;99.90
57108;DHT22;42987;52.916;6.542;2022-11-15T02:38:52;7.80;99.90
57108;DHT22;42987;52.916;6.542;2022-11-15T02:44:09;7.80;99.90
57108;DHT22;42987;52.916;6.542;2022-11-15T02:46:44;7.80;99.90
57108;DHT22;42987;52.916;6.542;2022-11-15T02:49:32;7.80;99.90
57108;DHT22;42987;52.916;6.542;2022-11-15T02:52:02;7.80;99.90
57108;DHT22;42987;52.916;6.542;2022-11-15T02:54:33;7.90;99.90
57108;DHT22;42987;52.916;6.542;2022-11-15T02:57:05;7.90;99.90
57108;DHT22;42987;52.916;6.542;2022-11-15T03:03:09;7.90;99.90
57108;DHT22;42987;52.916;6.542;2022-11-15T03:05:25;7.90;99.90
57108;DHT22;42987;52.916;6.542;2022-11-15T03:11:13;8.00;99.90
57108;DHT22;42987;52.916;6.542;2022-11-15T03:13:58;7.90;99.90
57108;DHT22;42987;52.916;6.542;2022-11-15T03:19:17;8.00;99.90
57108;DHT22;42987;52.916;6.542;2022-11-15T03:21:47;8.00;99.90
57108;DHT22;42987;52.916;6.542;2022-11-15T03:24:18;8.00;99.90
57108;DHT22;42987;52.916;6.542;2022-11-15T03:26:45;8.10;99.90
57108;DHT22;42987;52.916;6.542;2022-11-15T03:29:22;8.10;99.90
57108;DHT22;42987;52.916;6.542;2022-11-15T03:31:57;8.10;99.90
57108;DHT22;42987;52.916;6.542;2022-11-15T03:34:39;8.10;99.90
57108;DHT22;42987;52.916;6.542;2022-11-15T03:37:07;8.10;99.90
57108;DHT22;42987;52.916;6.542;2022-11-15T03:39:34;8.10;99.90
57108;DHT22;42987;52.916;6.542;2022-11-15T03:47:43;8.10;99.90
57108;DHT22;42987;52.916;6.542;2022-11-15T03:50:17;8.10;99.90
57108;DHT22;42987;52.916;6.542;2022-11-15T03:52:47;8.20;99.90
57108;DHT22;42987;52.916;6.542;2022-11-15T03:55:17;8.20;99.90
57108;DHT22;42987;52.916;6.542;2022-11-15T03:57:43;8.20;99.90
57108;DHT22;42987;52.916;6.542;2022-11-15T04:00:10;8.20;99.90
57108;DHT22;42987;52.916;6.542;2022-11-15T04:02:36;8.20;99.90
57108;DHT22;42987;52.916;6.542;2022-11-15T04:05:03;8.20;99.90
57108;DHT22;42987;52.916;6.542;2022-11-15T04:07:29;8.20;99.90
57108;DHT22;42987;52.916;6.542;2022-11-15T04:09:57;8.20;99.90
57108;DHT22;42987;52.916;6.542;2022-11-15T04:12:35;8.30;99.90
57108;DHT22;42987;52.916;6.542;2022-11-15T04:15:07;8.30;99.90
57108;DHT22;42987;52.916;6.542;2022-11-15T04:20:05;8.30;99.90
57108;DHT22;42987;52.916;6.542;2022-11-15T04:22:55;8.30;99.90
57108;DHT22;42987;52.916;6.542;2022-11-15T04:25:40;8.40;99.90
57108;DHT22;42987;52.916;6.542;2022-11-15T04:28:06;8.40;99.90
57108;DHT22;42987;52.916;6.542;2022-11-15T04:30:32;8.40;99.90
57108;DHT22;42987;52.916;6.542;2022-11-15T04:33:01;8.50;99.90
57108;DHT22;42987;52.916;6.542;2022-11-15T04:35:27;8.50;99.90
57108;DHT22;42987;52.916;6.542;2022-11-15T04:37:53;8.50;99.90
57108;DHT22;42987;52.916;6.542;2022-11-15T04:40:18;8.50;99.90
57108;DHT22;42987;52.916;6.542;2022-11-15T04:42:44;8.50;99.90
57108;DHT22;42987;52.916;6.542;2022-11-15T04:45:10;8.60;99.90
57108;DHT22;42987;52.916;6.542;2022-11-15T04:47:36;8.60;99.90
57108;DHT22;42987;52.916;6.542;2022-11-15T04:50:02;8.60;99.90
57108;DHT22;42987;52.916;6.542;2022-11-15T04:52:28;8.60;99.90
57108;DHT22;42987;52.916;6.542;2022-11-15T04:54:54;8.70;99.90
57108;DHT22;42987;52.916;6.542;2022-11-15T04:57:20;8.70;99.90
57108;DHT22;42987;52.916;6.542;2022-11-15T04:59:46;8.70;99.90
57108;DHT22;42987;52.916;6.542;2022-11-15T05:02:12;8.70;99.90
57108;DHT22;42987;52.916;6.542;2022-11-15T05:04:38;8.80;99.90
57108;DHT22;42987;52.916;6.542;2022-11-15T05:07:04;8.70;99.90
57108;DHT22;42987;52.916;6.542;2022-11-15T05:09:30;8.80;99.90
57108;DHT22;42987;52.916;6.542;2022-11-15T05:11:56;8.80;99.90
57108;DHT22;42987;52.916;6.542;2022-11-15T05:14:21;8.90;99.90
57108;DHT22;42987;52.916;6.542;2022-11-15T05:16:47;8.90;99.90
57108;DHT22;42987;52.916;6.542;2022-11-15T05:19:13;8.90;99.90
57108;DHT22;42987;52.916;6.542;2022-11-15T05:21:39;8.90;99.90
57108;DHT22;42987;52.916;6.542;2022-11-15T05:24:05;9.00;99.90
57108;DHT22;42987;52.916;6.542;2022-11-15T05:26:31;9.00;99.90
57108;DHT22;42987;52.916;6.542;2022-11-15T05:29:01;9.10;99.90
57108;DHT22;42987;52.916;6.542;2022-11-15T05:31:27;9.10;99.90
57108;DHT22;42987;52.916;6.542;2022-11-15T05:33:54;9.20;99.90
57108;DHT22;42987;52.916;6.542;2022-11-15T05:36:37;9.20;99.90
57108;DHT22;42987;52.916;6.542;2022-11-15T05:39:05;9.30;99.90
57108;DHT22;42987;52.916;6.542;2022-11-15T05:41:35;9.30;99.90
57108;DHT22;42987;52.916;6.542;2022-11-15T05:44:05;9.30;99.90
57108;DHT22;42987;52.916;6.542;2022-11-15T05:46:33;9.40;99.90
57108;DHT22;42987;52.916;6.542;2022-11-15T05:49:00;9.40;99.90
57108;DHT22;42987;52.916;6.542;2022-11-15T05:51:27;9.50;99.90
57108;DHT22;42987;52.916;6.542;2022-11-15T05:53:55;9.40;99.90
57108;DHT22;42987;52.916;6.542;2022-11-15T05:56:22;9.50;99.90
57108;DHT22;42987;52.916;6.542;2022-11-15T05:58:48;9.60;99.90
57108;DHT22;42987;52.916;6.542;2022-11-15T06:01:14;9.50;99.90
57108;DHT22;42987;52.916;6.542;2022-11-15T06:03:42;9.60;99.90
57108;DHT22;42987;52.916;6.542;2022-11-15T06:06:08;9.60;99.90
57108;DHT22;42987;52.916;6.542;2022-11-15T06:08:34;9.60;99.90
57108;DHT22;42987;52.916;6.542;2022-11-15T06:11:05;9.70;99.90
57108;DHT22;42987;52.916;6.542;2022-11-15T06:13:31;9.70;99.90
57108;DHT22;42987;52.916;6.542;2022-11-15T06:15:56;9.70;99.90
57108;DHT22;42987;52.916;6.542;2022-11-15T06:18:22;9.70;99.90
57108;DHT22;42987;52.916;6.542;2022-11-15T06:20:48;9.80;99.90
57108;DHT22;42987;52.916;6.542;2022-11-15T06:23:14;9.90;99.90
57108;DHT22;42987;52.916;6.542;2022-11-15T06:25:39;9.80;99.90
57108;DHT22;42987;52.916;6.542;2022-11-15T06:28:06;9.90;99.90
57108;DHT22;42987;52.916;6.542;2022-11-15T06:30:32;9.90;99.90
57108;DHT22;42987;52.916;6.542;2022-11-15T06:33:03;9.90;99.90
57108;DHT22;42987;52.916;6.542;2022-11-15T06:35:29;9.90;99.90
57108;DHT22;42987;52.916;6.542;2022-11-15T06:38:01;9.90;99.90
57108;DHT22;42987;52.916;6.542;2022-11-15T06:40:27;10.00;99.90
57108;DHT22;42987;52.916;6.542;2022-11-15T06:43:00;10.00;99.90
57108;DHT22;42987;52.916;6.542;2022-11-15T06:45:26;10.00;99.90
57108;DHT22;42987;52.916;6.542;2022-11-15T06:47:52;10.00;99.90
57108;DHT22;42987;52.916;6.542;2022-11-15T06:50:18;10.00;99.90
57108;DHT22;42987;52.916;6.542;2022-11-15T06:52:44;10.10;99.90
57108;DHT22;42987;52.916;6.542;2022-11-15T06:55:09;10.10;99.90
57108;DHT22;42987;52.916;6.542;2022-11-15T06:57:36;10.10;99.90
57108;DHT22;42987;52.916;6.542;2022-11-15T07:00:04;10.20;99.90
57108;DHT22;42987;52.916;6.542;2022-11-15T07:02:30;10.20;99.90
57108;DHT22;42987;52.916;6.542;2022-11-15T07:04:56;10.20;99.90
57108;DHT22;42987;52.916;6.542;2022-11-15T07:07:22;10.20;99.90
57108;DHT22;42987;52.916;6.542;2022-11-15T07:09:48;10.30;99.90
57108;DHT22;42987;52.916;6.542;2022-11-15T07:12:13;10.30;99.90
57108;DHT22;42987;52.916;6.542;2022-11-15T07:14:39;10.30;99.90
57108;DHT22;42987;52.916;6.542;2022-11-15T07:17:05;10.30;99.90
57108;DHT22;42987;52.916;6.542;2022-11-15T07:19:31;10.40;99.90
57108;DHT22;42987;52.916;6.542;2022-11-15T07:21:57;10.40;99.90
57108;DHT22;42987;52.916;6.542;2022-11-15T07:24:23;10.40;99.90
57108;DHT22;42987;52.916;6.542;2022-11-15T07:26:49;10.40;99.90
57108;DHT22;42987;52.916;6.542;2022-11-15T07:29:14;10.50;99.90
57108;DHT22;42987;52.916;6.542;2022-11-15T07:31:40;10.40;99.90
57108;DHT22;42987;52.916;6.542;2022-11-15T07:34:06;10.50;99.90
57108;DHT22;42987;52.916;6.542;2022-11-15T07:36:32;10.50;99.90
57108;DHT22;42987;52.916;6.542;2022-11-15T07:38:58;10.50;99.90
57108;DHT22;42987;52.916;6.542;2022-11-15T07:41:26;10.50;99.90
57108;DHT22;42987;52.916;6.542;2022-11-15T07:43:52;10.60;99.90
57108;DHT22;42987;52.916;6.542;2022-11-15T07:46:18;10.50;99.90
57108;DHT22;42987;52.916;6.542;2022-11-15T07:48:44;10.60;99.90
57108;DHT22;42987;52.916;6.542;2022-11-15T07:51:16;10.60;99.90
57108;DHT22;42987;52.916;6.542;2022-11-15T07:53:43;10.60;99.90
57108;DHT22;42987;52.916;6.542;2022-11-15T07:56:09;10.70;99.90
57108;DHT22;42987;52.916;6.542;2022-11-15T07:58:35;10.70;99.90
57108;DHT22;42987;52.916;6.542;2022-11-15T08:01:05;10.70;99.90
57108;DHT22;42987;52.916;6.542;2022-11-15T08:03:32;10.70;99.90
57108;DHT22;42987;52.916;6.542;2022-11-15T08:05:58;10.70;99.90
57108;DHT22;42987;52.916;6.542;2022-11-15T08:08:24;10.70;99.90
57108;DHT22;42987;52.916;6.542;2022-11-15T08:10:50;10.70;99.90
57108;DHT22;42987;52.916;6.542;2022-11-15T08:13:16;10.70;99.90
57108;DHT22;42987;52.916;6.542;2022-11-15T08:15:42;10.80;99.90
57108;DHT22;42987;52.916;6.542;2022-11-15T08:18:15;10.70;99.90
57108;DHT22;42987;52.916;6.542;2022-11-15T08:20:42;10.80;99.90
57108;DHT22;42987;52.916;6.542;2022-11-15T08:23:10;10.80;99.90
57108;DHT22;42987;52.916;6.542;2022-11-15T08:25:36;10.80;99.90
57108;DHT22;42987;52.916;6.542;2022-11-15T08:28:04;10.90;99.90
57108;DHT22;42987;52.916;6.542;2022-11-15T08:30:33;10.90;99.90
57108;DHT22;42987;52.916;6.542;2022-11-15T08:33:00;10.90;99.90
57108;DHT22;42987;52.916;6.542;2022-11-15T08:35:25;10.90;99.90
57108;DHT22;42987;52.916;6.542;2022-11-15T08:37:53;11.00;99.90
57108;DHT22;42987;52.916;6.542;2022-11-15T08:40:19;11.00;99.90
57108;DHT22;42987;52.916;6.542;2022-11-15T08:42:48;11.00;99.90
57108;DHT22;42987;52.916;6.542;2022-11-15T08:45:14;11.00;99.90
57108;DHT22;42987;52.916;6.542;2022-11-15T08:47:40;11.10;99.90
57108;DHT22;42987;52.916;6.542;2022-11-15T08:50:06;11.10;99.90
57108;DHT22;42987;52.916;6.542;2022-11-15T08:52:33;11.10;99.90
57108;DHT22;42987;52.916;6.542;2022-11-15T08:55:02;11.10;99.90
57108;DHT22;42987;52.916;6.542;2022-11-15T08:57:31;11.10;99.90
57108;DHT22;42987;52.916;6.542;2022-11-15T08:59:57;11.20;99.90
57108;DHT22;42987;52.916;6.542;2022-11-15T09:02:22;11.10;99.90
57108;DHT22;42987;52.916;6.542;2022-11-15T09:04:48;11.20;99.90
57108;DHT22;42987;52.916;6.542;2022-11-15T09:07:14;11.30;99.90
57108;DHT22;42987;52.916;6.542;2022-11-15T09:09:40;11.30;99.90
57108;DHT22;42987;52.916;6.542;2022-11-15T09:12:07;11.30;99.90
57108;DHT22;42987;52.916;6.542;2022-11-15T09:14:33;11.30;99.90
57108;DHT22;42987;52.916;6.542;2022-11-15T09:16:59;11.30;99.90
57108;DHT22;42987;52.916;6.542;2022-11-15T09:19:25;11.40;99.90
57108;DHT22;42987;52.916;6.542;2022-11-15T09:21:51;11.40;99.90
57108;DHT22;42987;52.916;6.542;2022-11-15T09:24:17;11.40;99.90
57108;DHT22;42987;52.916;6.542;2022-11-15T09:26:43;11.40;99.90
57108;DHT22;42987;52.916;6.542;2022-11-15T09:29:09;11.40;99.90
57108;DHT22;42987;52.916;6.542;2022-11-15T09:31:35;11.40;99.90
57108;DHT22;42987;52.916;6.542;2022-11-15T09:34:01;11.50;99.90
57108;DHT22;42987;52.916;6.542;2022-11-15T09:36:27;11.50;99.90
57108;DHT22;42987;52.916;6.542;2022-11-15T09:38:52;11.50;99.90
57108;DHT22;42987;52.916;6.542;2022-11-15T09:49:21;11.60;99.90
57108;DHT22;42987;52.916;6.542;2022-11-15T09:51:50;11.60;99.90
57108;DHT22;42987;52.916;6.542;2022-11-15T09:59:56;11.70;99.90
57108;DHT22;42987;52.916;6.542;2022-11-15T10:02:37;11.70;99.90
57108;DHT22;42987;52.916;6.542;2022-11-15T10:05:10;11.70;99.90
57108;DHT22;42987;52.916;6.542;2022-11-15T10:10:41;11.80;99.90
57108;DHT22;42987;52.916;6.542;2022-11-15T10:13:22;11.80;99.90
57108;DHT22;42987;52.916;6.542;2022-11-15T10:15:49;11.80;99.90
57108;DHT22;42987;52.916;6.542;2022-11-15T10:21:15;11.80;99.90
57108;DHT22;42987;52.916;6.542;2022-11-15T10:23:41;11.80;99.90
57108;DHT22;42987;52.916;6.542;2022-11-15T10:26:11;11.80;99.90
57108;DHT22;42987;52.916;6.542;2022-11-15T10:28:38;11.90;99.90
57108;DHT22;42987;52.916;6.542;2022-11-15T10:31:22;11.90;99.90
57108;DHT22;42987;52.916;6.542;2022-11-15T10:33:48;11.90;99.90
57108;DHT22;42987;52.916;6.542;2022-11-15T10:36:17;11.90;99.90
57108;DHT22;42987;52.916;6.542;2022-11-15T10:43:46;12.00;99.90
57108;DHT22;42987;52.916;6.542;2022-11-15T10:46:26;12.00;99.90
57108;DHT22;42987;52.916;6.542;2022-11-15T10:48:51;12.00;99.90
57108;DHT22;42987;52.916;6.542;2022-11-15T10:51:23;12.10;99.90
57108;DHT22;42987;52.916;6.542;2022-11-15T10:53:59;12.10;99.90
57108;DHT22;42987;52.916;6.542;2022-11-15T10:56:26;12.20;99.90
57108;DHT22;42987;52.916;6.542;2022-11-15T10:59:01;12.20;99.90
57108;DHT22;42987;52.916;6.542;2022-11-15T11:01:31;12.30;99.90
57108;DHT22;42987;52.916;6.542;2022-11-15T11:04:10;12.30;99.90
57108;DHT22;42987;52.916;6.542;2022-11-15T11:06:50;12.40;99.90
57108;DHT22;42987;52.916;6.542;2022-11-15T11:11:58;12.50;99.90
57108;DHT22;42987;52.916;6.542;2022-11-15T11:14:27;12.50;99.90
57108;DHT22;42987;52.916;6.542;2022-11-15T11:17:13;12.50;99.90
57108;DHT22;42987;52.916;6.542;2022-11-15T11:22:55;12.60;99.90
57108;DHT22;42987;52.916;6.542;2022-11-15T11:28:42;12.60;99.90
57108;DHT22;42987;52.916;6.542;2022-11-15T11:36:27;12.50;99.90
57108;DHT22;42987;52.916;6.542;2022-11-15T11:47:00;12.40;99.90
57108;DHT22;42987;52.916;6.542;2022-11-15T11:49:31;12.40;99.90
57108;DHT22;42987;52.916;6.542;2022-11-15T11:52:18;12.40;99.90
57108;DHT22;42987;52.916;6.542;2022-11-15T12:05:34;12.30;99.90
57108;DHT22;42987;52.916;6.542;2022-11-15T12:10:45;12.20;99.90
57108;DHT22;42987;52.916;6.542;2022-11-15T12:13:16;12.20;99.90
57108;DHT22;42987;52.916;6.542;2022-11-15T12:15:51;12.30;99.90
57108;DHT22;42987;52.916;6.542;2022-11-15T12:18:19;12.20;99.90
57108;DHT22;42987;52.916;6.542;2022-11-15T12:21:13;12.20;99.90
57108;DHT22;42987;52.916;6.542;2022-11-15T12:23:49;12.30;99.90
57108;DHT22;42987;52.916;6.542;2022-11-15T12:26:20;12.40;99.90
57108;DHT22;42987;52.916;6.542;2022-11-15T12:28:56;12.50;99.90
57108;DHT22;42987;52.916;6.542;2022-11-15T12:34:02;12.70;99.90
57108;DHT22;42987;52.916;6.542;2022-11-15T12:36:41;12.70;99.90
57108;DHT22;42987;52.916;6.542;2022-11-15T12:39:12;12.80;99.90
57108;DHT22;42987;52.916;6.542;2022-11-15T12:41:43;12.80;99.90
57108;DHT22;42987;52.916;6.542;2022-11-15T12:47:22;12.90;99.90
57108;DHT22;42987;52.916;6.542;2022-11-15T12:49:49;12.90;99.90
57108;DHT22;42987;52.916;6.542;2022-11-15T12:52:16;12.80;99.90
57108;DHT22;42987;52.916;6.542;2022-11-15T12:59:56;12.80;99.90
57108;DHT22;42987;52.916;6.542;2022-11-15T13:02:35;12.90;99.90
57108;DHT22;42987;52.916;6.542;2022-11-15T13:17:53;12.80;99.90
57108;DHT22;42987;52.916;6.542;2022-11-15T13:20:28;12.90;99.90
57108;DHT22;42987;52.916;6.542;2022-11-15T13:28:00;12.80;99.90
57108;DHT22;42987;52.916;6.542;2022-11-15T13:30:30;12.70;99.90
57108;DHT22;42987;52.916;6.542;2022-11-15T13:33:25;12.70;99.90
57108;DHT22;42987;52.916;6.542;2022-11-15T13:35:56;12.70;99.90
57108;DHT22;42987;52.916;6.542;2022-11-15T13:38:33;12.70;99.90
57108;DHT22;42987;52.916;6.542;2022-11-15T13:41:10;12.60;99.90
57108;DHT22;42987;52.916;6.542;2022-11-15T13:43:37;12.60;99.90
57108;DHT22;42987;52.916;6.542;2022-11-15T13:48:39;12.60;99.90
57108;DHT22;42987;52.916;6.542;2022-11-15T13:51:18;12.50;99.90
57108;DHT22;42987;52.916;6.542;2022-11-15T13:53:50;12.50;99.90
57108;DHT22;42987;52.916;6.542;2022-11-15T13:56:18;12.50;99.90
57108;DHT22;42987;52.916;6.542;2022-11-15T13:58:46;12.50;99.90
57108;DHT22;42987;52.916;6.542;2022-11-15T14:01:17;12.50;99.90
57108;DHT22;42987;52.916;6.542;2022-11-15T14:03:57;12.40;99.90
57108;DHT22;42987;52.916;6.542;2022-11-15T14:06:26;12.40;99.90
57108;DHT22;42987;52.916;6.542;2022-11-15T14:11:24;12.30;99.90
57108;DHT22;42987;52.916;6.542;2022-11-15T14:14:05;12.30;99.90
57108;DHT22;42987;52.916;6.542;2022-11-15T14:16:47;12.30;99.90
57108;DHT22;42987;52.916;6.542;2022-11-15T14:19:35;12.20;99.90
57108;DHT22;42987;52.916;6.542;2022-11-15T14:22:14;12.20;99.90
57108;DHT22;42987;52.916;6.542;2022-11-15T14:24:45;12.20;99.90
57108;DHT22;42987;52.916;6.542;2022-11-15T14:27:28;12.00;99.90
57108;DHT22;42987;52.916;6.542;2022-11-15T14:29:54;12.00;99.90
57108;DHT22;42987;52.916;6.542;2022-11-15T14:32:26;12.00;99.90
57108;DHT22;42987;52.916;6.542;2022-11-15T14:35:00;11.90;99.90
57108;DHT22;42987;52.916;6.542;2022-11-15T14:37:33;11.90;99.90
57108;DHT22;42987;52.916;6.542;2022-11-15T14:40:01;11.90;99.90
57108;DHT22;42987;52.916;6.542;2022-11-15T14:42:27;11.80;99.90
57108;DHT22;42987;52.916;6.542;2022-11-15T14:44:56;11.80;99.90
57108;DHT22;42987;52.916;6.542;2022-11-15T14:47:22;11.70;99.90
57108;DHT22;42987;52.916;6.542;2022-11-15T14:49:48;11.70;99.90
57108;DHT22;42987;52.916;6.542;2022-11-15T14:52:25;11.70;99.90
57108;DHT22;42987;52.916;6.542;2022-11-15T14:54:52;11.60;99.90
57108;DHT22;42987;52.916;6.542;2022-11-15T14:57:17;11.60;99.90
57108;DHT22;42987;52.916;6.542;2022-11-15T14:59:43;11.50;99.90
57108;DHT22;42987;52.916;6.542;2022-11-15T15:02:24;11.50;99.90
57108;DHT22;42987;52.916;6.542;2022-11-15T15:04:50;11.50;99.90
57108;DHT22;42987;52.916;6.542;2022-11-15T15:07:17;11.50;99.90
57108;DHT22;42987;52.916;6.542;2022-11-15T15:09:43;11.50;99.90
57108;DHT22;42987;52.916;6.542;2022-11-15T15:12:16;11.50;99.90
57108;DHT22;42987;52.916;6.542;2022-11-15T15:14:43;11.50;99.90
57108;DHT22;42987;52.916;6.542;2022-11-15T15:17:09;11.50;99.90
57108;DHT22;42987;52.916;6.542;2022-11-15T15:19:35;11.50;99.90
57108;DHT22;42987;52.916;6.542;2022-11-15T15:22:01;11.50;99.90
57108;DHT22;42987;52.916;6.542;2022-11-15T15:24:27;11.50;99.90
57108;DHT22;42987;52.916;6.542;2022-11-15T15:26:53;11.50;99.90
57108;DHT22;42987;52.916;6.542;2022-11-15T15:29:18;11.50;99.90
57108;DHT22;42987;52.916;6.542;2022-11-15T15:31:44;11.50;99.90
57108;DHT22;42987;52.916;6.542;2022-11-15T15:34:10;11.50;99.90
57108;DHT22;42987;52.916;6.542;2022-11-15T15:36:36;11.50;99.90
57108;DHT22;42987;52.916;6.542;2022-11-15T15:39:01;11.50;99.90
57108;DHT22;42987;52.916;6.542;2022-11-15T15:41:27;11.40;99.90
57108;DHT22;42987;52.916;6.542;2022-11-15T15:43:56;11.50;99.90
57108;DHT22;42987;52.916;6.542;2022-11-15T15:46:22;11.50;99.90
57108;DHT22;42987;52.916;6.542;2022-11-15T15:48:48;11.40;99.90
57108;DHT22;42987;52.916;6.542;2022-11-15T15:51:13;11.40;99.90
57108;DHT22;42987;52.916;6.542;2022-11-15T15:53:39;11.40;99.90
57108;DHT22;42987;52.916;6.542;2022-11-15T15:56:05;11.40;99.90
57108;DHT22;42987;52.916;6.542;2022-11-15T15:58:33;11.40;99.90
57108;DHT22;42987;52.916;6.542;2022-11-15T16:00:59;11.40;99.90
57108;DHT22;42987;52.916;6.542;2022-11-15T16:03:25;11.30;99.90
57108;DHT22;42987;52.916;6.542;2022-11-15T16:05:53;11.30;99.90
57108;DHT22;42987;52.916;6.542;2022-11-15T16:08:20;11.30;99.90
57108;DHT22;42987;52.916;6.542;2022-11-15T16:10:47;11.30;99.90
57108;DHT22;42987;52.916;6.542;2022-11-15T16:13:13;11.20;99.90
57108;DHT22;42987;52.916;6.542;2022-11-15T16:15:39;11.20;99.90
57108;DHT22;42987;52.916;6.542;2022-11-15T16:18:06;11.20;99.90
57108;DHT22;42987;52.916;6.542;2022-11-15T16:23:08;11.10;99.90
57108;DHT22;42987;52.916;6.542;2022-11-15T16:25:48;11.10;99.90
57108;DHT22;42987;52.916;6.542;2022-11-15T16:28:28;11.10;99.90
57108;DHT22;42987;52.916;6.542;2022-11-15T16:31:01;11.10;99.90
57108;DHT22;42987;52.916;6.542;2022-11-15T16:33:27;11.10;99.90
57108;DHT22;42987;52.916;6.542;2022-11-15T16:35:53;11.10;99.90
57108;DHT22;42987;52.916;6.542;2022-11-15T16:38:19;11.10;99.90
57108;DHT22;42987;52.916;6.542;2022-11-15T16:40:45;11.10;99.90
57108;DHT22;42987;52.916;6.542;2022-11-15T16:43:11;11.10;99.90
57108;DHT22;42987;52.916;6.542;2022-11-15T16:45:37;11.10;99.90
57108;DHT22;42987;52.916;6.542;2022-11-15T16:48:03;11.10;99.90
57108;DHT22;42987;52.916;6.542;2022-11-15T16:50:31;11.20;99.90
57108;DHT22;42987;52.916;6.542;2022-11-15T16:52:59;11.20;99.90
57108;DHT22;42987;52.916;6.542;2022-11-15T16:55:27;11.20;99.90
57108;DHT22;42987;52.916;6.542;2022-11-15T16:57:55;11.20;99.90
57108;DHT22;42987;52.916;6.542;2022-11-15T17:00:22;11.20;99.90
57108;DHT22;42987;52.916;6.542;2022-11-15T17:02:50;11.20;99.90
57108;DHT22;42987;52.916;6.542;2022-11-15T17:05:18;11.30;99.90
57108;DHT22;42987;52.916;6.542;2022-11-15T17:07:49;11.30;99.90
57108;DHT22;42987;52.916;6.542;2022-11-15T17:10:16;11.30;99.90
57108;DHT22;42987;52.916;6.542;2022-11-15T17:12:43;11.40;99.90
57108;DHT22;42987;52.916;6.542;2022-11-15T17:15:11;11.40;99.90
57108;DHT22;42987;52.916;6.542;2022-11-15T17:17:37;11.40;99.90
57108;DHT22;42987;52.916;6.542;2022-11-15T17:20:03;11.50;99.90
57108;DHT22;42987;52.916;6.542;2022-11-15T17:22:29;11.50;99.90
57108;DHT22;42987;52.916;6.542;2022-11-15T17:24:56;11.50;99.90
57108;DHT22;42987;52.916;6.542;2022-11-15T17:27:22;11.50;99.90
57108;DHT22;42987;52.916;6.542;2022-11-15T17:29:48;11.60;99.90
57108;DHT22;42987;52.916;6.542;2022-11-15T17:32:14;11.60;99.90
57108;DHT22;42987;52.916;6.542;2022-11-15T17:34:40;11.60;99.90
57108;DHT22;42987;52.916;6.542;2022-11-15T17:37:05;11.60;99.90
57108;DHT22;42987;52.916;6.542;2022-11-15T17:39:31;11.60;99.90
57108;DHT22;42987;52.916;6.542;2022-11-15T17:42:00;11.60;99.90
57108;DHT22;42987;52.916;6.542;2022-11-15T17:44:26;11.60;99.90
57108;DHT22;42987;52.916;6.542;2022-11-15T17:46:51;11.60;99.90
57108;DHT22;42987;52.916;6.542;2022-11-15T17:49:17;11.70;99.90
57108;DHT22;42987;52.916;6.542;2022-11-15T17:51:43;11.60;99.90
57108;DHT22;42987;52.916;6.542;2022-11-15T17:54:10;11.70;99.90
57108;DHT22;42987;52.916;6.542;2022-11-15T17:56:38;11.70;99.90